KNRS/NRS METAR and TAF weather

Enter ICAO airport designator
Station Type Date Time Source
KNRS METAR 2019/04/19 10:56 UTC NOAA

KNRS 191056Z AUTO 31007KT 8SM OVC009 16/13 A3000 RMK AO2 SLP159 T01610133 $


Station Type Date Time Source
KNRS Decoded METAR 2019/04/19 10:56 UTC NOAA

IMPERIAL BEACH, NOLF, CA, United States (KNRS) 32-34N 117-07W 5M
Apr 19, 2019 - 06:56 AM EDT / 2019.04.19 1056 UTC
Wind: from the NW (310 degrees) at 8 MPH (7 KT):0
Visibility: 8 mile(s):0
Sky conditions: overcast
Temperature: 61.0 F (16.1 C)
Dew Point: 55.9 F (13.3 C)
Relative Humidity: 83%
Pressure (altimeter): 30 in. Hg (1015 hPa)
ob: KNRS 191056Z AUTO 31007KT 8SM OVC009 16/13 A3000 RMK AO2 SLP159 T01610133
cycle: 11

Station Type Date Time Source
KNRS TAF UTC NOAA

Error!

Example: see airport list